Time;durP1;ratioP1;P1;durP2;ratioP2;P2;SDS_P1;SDS_P2;PMS_P1;PMS_P2;Temp;Humidity;BMP_temperature;BMP_pressure;BME280_temperature;BME280_humidity;BME280_pressure;Samples;Min_cycle;Max_cycle;Signal;HPM_P1;HPM_P2
2023/08/10 00:01:11;;;;;;;46.05;3.55;;;;;;;22.78;55.41;99772.19;7310648;19;131035;-37
2023/08/10 00:03:36;;;;;;;68.70;4.93;;;;;;;22.65;54.60;99748.09;7308144;19;129392;-39
2023/08/10 00:06:02;;;;;;;49.55;3.78;;;;;;;22.77;55.09;99767.91;7307039;19;128962;-39
2023/08/10 00:08:29;;;;;;;72.32;5.13;;;;;;;22.76;54.94;99761.84;7306566;19;129322;-40
2023/08/10 00:10:55;;;;;;;39.97;3.20;;;;;;;22.76;54.53;99768.88;7308291;19;130360;-41
2023/08/10 00:13:20;;;;;;;26.27;2.27;;;;;;;22.66;54.62;99747.13;7310186;19;129367;-39
2023/08/10 00:15:46;;;;;;;56.63;4.10;;;;;;;22.74;55.10;99757.72;7302168;19;129138;-38
2023/08/10 00:18:11;;;;;;;46.83;3.53;;;;;;;22.75;54.88;99759.38;7306334;19;129608;-38
2023/08/10 00:20:37;;;;;;;82.40;6.22;;;;;;;22.74;55.12;99760.34;7302384;19;129248;-35
2023/08/10 00:23:02;;;;;;;39.78;3.25;;;;;;;22.61;54.92;99738.88;7302313;19;130457;-33
2023/08/10 00:25:28;;;;;;;26.27;2.42;;;;;;;22.73;54.57;99766.53;7300910;19;129492;-41
2023/08/10 00:27:55;;;;;;;81.33;5.93;;;;;;;22.72;54.91;99762.28;7303462;19;129871;-38
2023/08/10 00:30:21;;;;;;;66.75;4.97;;;;;;;22.66;55.21;99760.25;7302653;19;130203;-39
2023/08/10 00:32:46;;;;;;;44.17;3.27;;;;;;;22.69;54.44;99766.00;7310092;19;129042;-36
2023/08/10 00:35:12;;;;;;;46.30;3.55;;;;;;;22.69;54.75;99759.94;7309734;19;129669;-36
2023/08/10 00:37:37;;;;;;;79.95;5.40;;;;;;;22.67;55.00;99764.50;7306487;19;132192;-40
2023/08/10 00:40:03;;;;;;;38.00;2.97;;;;;;;22.68;54.88;99769.59;7316364;19;129533;-34
2023/08/10 00:42:28;;;;;;;58.80;4.83;;;;;;;22.68;54.58;99763.53;7314787;19;128964;-37
2023/08/10 00:44:54;;;;;;;43.53;3.33;;;;;;;22.67;54.38;99767.97;7313662;19;129310;-38
2023/08/10 00:47:19;;;;;;;86.32;6.18;;;;;;;22.66;54.97;99770.72;7313864;19;130147;-41
2023/08/10 00:49:45;;;;;;;39.10;3.28;;;;;;;22.66;54.51;99779.38;7312560;19;129113;-34
2023/08/10 00:52:11;;;;;;;18.97;1.77;;;;;;;22.56;55.08;99754.19;7315019;19;130383;-38
2023/08/10 00:54:36;;;;;;;77.93;6.25;;;;;;;22.67;55.03;99777.59;7312116;19;129601;-37
2023/08/10 00:57:02;;;;;;;43.97;3.20;;;;;;;22.68;55.21;99776.63;7315598;19;129301;-40
2023/08/10 00:59:31;;;;;;;37.57;3.13;;;;;;;22.65;55.47;99771.66;7312599;19;130360;-36
2023/08/10 01:01:57;;;;;;;45.47;3.70;;;;;;;22.62;54.89;99774.59;7314466;19;129113;-37
2023/08/10 01:04:22;;;;;;;84.83;6.27;;;;;;;22.65;54.48;99776.91;7312996;19;129107;-35
2023/08/10 01:07:06;;;;;;;49.57;3.73;;;;;;;22.67;55.08;99786.31;7314037;19;129196;-39
2023/08/10 01:09:42;;;;;;;40.92;3.45;;;;;;;22.54;55.80;99766.59;7315230;19;129634;-37
2023/08/10 01:12:12;;;;;;;58.58;4.20;;;;;;;;;;7316131;19;129336;-36
2023/08/10 01:14:44;;;;;;;44.25;3.58;;;;;;;22.62;54.77;99788.53;7311376;19;129411;-37
2023/08/10 01:17:18;;;;;;;47.42;3.45;;;;;;;22.61;55.21;99794.72;7313039;19;130269;-38
2023/08/10 01:19:46;;;;;;;30.85;2.58;;;;;;;22.59;54.45;99780.13;7312456;19;129207;-35
2023/08/10 01:22:21;;;;;;;82.13;5.97;;;;;;;22.61;54.89;99794.72;7314015;19;129947;-41
2023/08/10 01:25:06;;;;;;;43.40;3.17;;;;;;;22.65;54.89;99788.22;7313907;19;128787;-38
2023/08/10 01:27:33;;;;;;;28.05;2.80;;;;;;;22.61;54.44;99799.16;7313775;19;130189;-33
2023/08/10 01:30:00;;;;;;;84.53;5.78;;;;;;;22.62;54.55;99798.16;7308785;19;129950;-44
2023/08/10 01:32:29;;;;;;;47.25;3.42;;;;;;;22.60;54.89;99795.69;7312349;19;129042;-41
2023/08/10 01:34:55;;;;;;;68.88;4.72;;;;;;;22.60;54.67;99793.06;7310070;19;128900;-39
2023/08/10 01:37:21;;;;;;;38.17;2.97;;;;;;;22.59;54.35;99801.06;7313187;19;129187;-34
2023/08/10 01:39:47;;;;;;;55.93;4.07;;;;;;;22.59;54.40;99796.63;7310007;19;129775;-34
2023/08/10 01:42:12;;;;;;;68.22;4.85;;;;;;;22.60;55.00;99805.34;7311184;19;129173;-37
2023/08/10 01:44:37;;;;;;;111.73;7.70;;;;;;;22.58;54.86;99799.41;7305106;19;129096;-41
2023/08/10 01:47:07;;;;;;;44.70;3.42;;;;;;;22.59;54.91;99801.06;7312276;19;129503;-35
2023/08/10 01:49:35;;;;;;;90.68;6.68;;;;;;;22.58;55.01;99805.47;7303338;19;130331;-38
2023/08/10 01:52:07;;;;;;;59.08;4.28;;;;;;;22.59;55.21;99801.06;7304017;19;129849;-41
2023/08/10 01:54:36;;;;;;;117.70;8.55;;;;;;;22.60;55.06;99802.72;7306710;19;130170;-32
2023/08/10 01:57:01;;;;;;;44.97;3.42;;;;;;;22.60;54.69;99805.34;7307806;19;130218;-37
2023/08/10 01:59:27;;;;;;;49.20;3.80;;;;;;;22.59;54.50;99807.13;7310551;19;129598;-36
2023/08/10 02:01:52;;;;;;;83.75;6.30;;;;;;;22.58;55.00;99805.47;7311273;19;129095;-36
2023/08/10 02:04:18;;;;;;;54.67;3.63;;;;;;;22.58;54.72;99805.47;7312864;19;128978;-37
2023/08/10 02:06:43;;;;;;;89.97;6.43;;;;;;;22.57;54.78;99803.84;7305415;19;130702;-43
2023/08/10 02:09:08;;;;;;;24.37;2.20;;;;;;;22.58;54.72;99809.88;7306725;19;131038;-35
2023/08/10 02:11:34;;;;;;;65.68;4.90;;;;;;;22.56;54.69;99806.59;7310655;19;129916;-36
2023/08/10 02:14:00;;;;;;;50.10;3.70;;;;;;;22.56;54.31;99801.38;7307867;19;131076;-36
2023/08/10 02:16:25;;;;;;;94.18;6.32;;;;;;;22.54;54.34;99805.91;7306697;19;129282;-41
2023/08/10 02:18:50;;;;;;;93.05;6.60;;;;;;;22.56;54.58;99811.84;7300770;19;130398;-40
2023/08/10 02:21:16;;;;;;;65.17;5.03;;;;;;;22.56;54.41;99811.84;7307441;19;129129;-44
2023/08/10 02:23:41;;;;;;;60.00;4.17;;;;;;;22.51;54.76;99803.53;7307063;19;129272;-48
2023/08/10 02:26:06;;;;;;;67.43;4.65;;;;;;;22.53;54.59;99812.94;7301001;19;129881;-40
2023/08/10 02:28:32;;;;;;;74.10;5.33;;;;;;;22.52;54.09;99800.78;7302334;19;129900;-41
2023/08/10 02:30:58;;;;;;;52.10;4.00;;;;;;;22.52;54.50;99806.03;7309481;19;129541;-39
2023/08/10 02:33:24;;;;;;;100.50;7.18;;;;;;;22.52;54.32;99805.19;7303767;19;129650;-36
2023/08/10 02:35:49;;;;;;;77.43;5.43;;;;;;;22.39;54.42;99789.78;7302537;19;130067;-39
2023/08/10 02:38:14;;;;;;;67.38;5.03;;;;;;;22.50;54.46;99807.13;7301281;19;130350;-41
2023/08/10 02:40:40;;;;;;;53.35;3.75;;;;;;;22.51;54.35;99804.34;7304525;19;129243;-34
2023/08/10 02:43:05;;;;;;;36.88;2.88;;;;;;;22.50;53.90;99812.34;7309184;19;130020;-34
2023/08/10 02:45:30;;;;;;;28.42;2.38;;;;;;;22.40;54.66;99801.06;7307524;19;129543;-37
2023/08/10 02:47:56;;;;;;;47.53;3.72;;;;;;;22.48;54.72;99804.63;7309597;19;129471;-40
2023/08/10 02:50:21;;;;;;;59.50;3.90;;;;;;;22.49;53.90;99818.56;7311302;19;128878;-48
2023/08/10 02:52:47;;;;;;;47.17;3.83;;;;;;;22.49;54.08;99815.94;7310512;19;130324;-38
2023/08/10 02:55:12;;;;;;;53.55;4.50;;;;;;;22.48;54.56;99815.13;7304366;19;131212;-38
2023/08/10 02:57:38;;;;;;;74.13;5.50;;;;;;;22.47;54.60;99807.41;7300397;19;130147;-41
2023/08/10 03:00:06;;;;;;;58.67;4.10;;;;;;;22.49;53.87;99808.09;7307643;19;130256;-38
2023/08/10 03:02:32;;;;;;;74.47;5.30;;;;;;;22.48;54.26;99804.63;7302913;19;129242;-37
2023/08/10 03:04:58;;;;;;;29.13;2.33;;;;;;;22.49;54.25;99811.53;7307883;19;129579;-36
2023/08/10 03:07:23;;;;;;;81.55;6.03;;;;;;;22.49;53.72;99805.47;7301684;19;130253;-35
2023/08/10 03:09:50;;;;;;;89.35;6.40;;;;;;;22.46;54.22;99805.75;7303187;19;130944;-37
2023/08/10 03:12:16;;;;;;;70.63;5.15;;;;;;;22.48;53.83;99809.88;7301857;19;130001;-36
2023/08/10 03:14:42;;;;;;;59.00;4.23;;;;;;;22.48;54.17;99809.03;7300462;19;130207;-34
2023/08/10 03:17:07;;;;;;;60.25;4.43;;;;;;;22.46;54.15;99805.75;7299599;19;131299;-33
2023/08/10 03:19:33;;;;;;;84.97;5.60;;;;;;;22.47;53.73;99802.16;7302396;19;130384;-36
2023/08/10 03:21:58;;;;;;;52.77;3.93;;;;;;;22.45;54.48;99809.31;7310579;19;129294;-48
2023/08/10 03:24:23;;;;;;;70.78;5.30;;;;;;;22.48;54.48;99806.41;7299866;19;131799;-40
2023/08/10 03:26:49;;;;;;;46.97;3.47;;;;;;;22.46;53.82;99806.56;7298164;19;130377;-40
2023/08/10 03:29:14;;;;;;;39.83;3.23;;;;;;;22.47;54.64;99812.63;7309131;19;130355;-45
2023/08/10 03:31:40;;;;;;;63.73;4.73;;;;;;;22.45;54.55;99820.63;7311005;19;129024;-44
2023/08/10 03:34:05;;;;;;;30.08;2.78;;;;;;;22.33;54.18;99805.22;7308398;19;129628;-38
2023/08/10 03:36:30;;;;;;;49.70;3.77;;;;;;;22.46;54.03;99826.72;7309502;19;129209;-37
2023/08/10 03:38:56;;;;;;;41.20;3.10;;;;;;;22.38;54.11;99818.72;7307935;19;130285;-38
2023/08/10 03:41:21;;;;;;;20.77;2.17;;;;;;;22.43;53.65;99829.63;7310864;19;129089;-44
2023/08/10 03:43:46;;;;;;;59.28;4.10;;;;;;;22.42;53.95;99830.56;7304552;19;129358;-41
2023/08/10 03:46:12;;;;;;;40.17;3.20;;;;;;;22.41;53.99;99834.16;7307351;19;129776;-37
2023/08/10 03:48:37;;;;;;;59.50;4.33;;;;;;;22.43;54.16;99837.47;7307110;19;129687;-45
2023/08/10 03:51:03;;;;;;;65.07;5.03;;;;;;;22.42;54.31;99827.94;7309068;19;129139;-38
2023/08/10 03:53:28;;;;;;;35.95;3.13;;;;;;;22.31;54.00;99813.22;7308354;19;129615;-36
2023/08/10 03:55:53;;;;;;;51.10;3.83;;;;;;;22.41;54.30;99834.16;7309548;19;129790;-37
2023/08/10 03:58:19;;;;;;;126.80;9.40;;;;;;;22.40;54.12;99833.34;7306324;19;130499;-36
2023/08/10 04:00:47;;;;;;;37.77;2.87;;;;;;;22.41;54.37;99839.41;7309630;19;129535;-43
2023/08/10 04:03:12;;;;;;;40.83;3.10;;;;;;;22.40;54.26;99840.34;7310067;19;130171;-44
2023/08/10 04:05:39;;;;;;;69.00;4.95;;;;;;;22.40;54.51;99838.56;7304376;19;129687;-41
2023/08/10 04:08:07;;;;;;;66.32;4.85;;;;;;;22.40;53.91;99842.97;7309904;19;129358;-36
2023/08/10 04:10:32;;;;;;;94.68;6.82;;;;;;;22.41;53.62;99839.41;7311964;19;129096;-38
2023/08/10 04:12:57;;;;;;;54.20;4.07;;;;;;;22.39;54.23;99851.81;7312926;19;129678;-36
2023/08/10 04:15:23;;;;;;;55.63;4.07;;;;;;;22.39;53.69;99847.41;7314938;19;129635;-41
2023/08/10 04:17:49;;;;;;;25.15;2.28;;;;;;;22.40;54.09;99853.44;7311832;19;129354;-39
2023/08/10 04:20:15;;;;;;;51.47;4.37;;;;;;;22.40;54.03;99849.03;7313755;19;129411;-37
2023/08/10 04:22:40;;;;;;;18.47;1.77;;;;;;;22.39;53.91;99852.66;7316201;19;131093;-36
2023/08/10 04:25:07;;;;;;;65.05;5.00;;;;;;;22.37;53.96;99851.94;7307820;19;129194;-46
2023/08/10 04:27:33;;;;;;;;;;;;;;;22.44;54.74;99849.59;7306449;19;129753;-36
2023/08/10 04:29:58;;;;;;;38.85;3.65;;;;;;;22.38;53.54;99848.34;7307354;19;129450;-38
2023/08/10 04:32:24;;;;;;;68.60;5.07;;;;;;;22.26;54.13;99825.06;7307207;19;130826;-37
2023/08/10 04:34:51;;;;;;;79.03;6.10;;;;;;;22.36;54.35;99850.28;7305021;19;131025;-41
2023/08/10 04:37:17;;;;;;;43.47;3.58;;;;;;;22.36;53.46;99855.50;7304585;19;129485;-44
2023/08/10 04:39:43;;;;;;;14.00;1.80;;;;;;;22.25;54.39;99828.63;7313215;19;129291;-37
2023/08/10 04:42:09;;;;;;;54.72;4.32;;;;;;;22.36;54.02;99850.28;7308033;19;129602;-39
2023/08/10 04:44:34;;;;;;;114.90;8.80;;;;;;;22.36;53.87;99847.66;7305857;19;130251;-36
2023/08/10 04:46:59;;;;;;;58.37;4.57;;;;;;;22.25;54.13;99828.63;7305943;19;130440;-42
2023/08/10 04:49:27;;;;;;;156.65;11.65;;;;;;;22.35;53.31;99850.41;7302945;19;130467;-43
2023/08/10 04:51:53;;;;;;;59.97;5.78;;;;;;;22.34;53.35;99843.53;7314982;19;130000;-42
2023/08/10 04:54:18;;;;;;;83.35;6.78;;;;;;;22.32;53.94;99845.47;7312806;19;129982;-37
2023/08/10 04:56:43;;;;;;;69.63;6.03;;;;;;;22.33;53.80;99847.13;7307728;19;131013;-42
2023/08/10 04:59:09;;;;;;;86.23;6.63;;;;;;;22.21;54.25;99832.50;7304922;19;130390;-41
2023/08/10 05:01:34;;;;;;;55.08;4.63;;;;;;;22.29;53.70;99846.56;7313009;19;130919;-41
2023/08/10 05:03:59;;;;;;;58.10;4.77;;;;;;;22.30;53.97;99852.63;7313764;19;129356;-42
2023/08/10 05:06:25;;;;;;;61.00;5.07;;;;;;;22.30;54.13;99855.25;7312102;19;131327;-42
2023/08/10 05:08:50;;;;;;;65.05;5.45;;;;;;;22.30;53.80;99855.25;7313832;19;129347;-45
2023/08/10 05:11:16;;;;;;;53.67;4.43;;;;;;;22.29;54.13;99853.59;7311500;19;130447;-40
2023/08/10 05:13:42;;;;;;;64.97;4.95;;;;;;;22.28;54.10;99855.38;7314414;19;130435;-43
2023/08/10 05:16:07;;;;;;;77.37;5.90;;;;;;;22.30;54.00;99865.72;7304495;19;129894;-38
2023/08/10 05:18:33;;;;;;;84.97;6.43;;;;;;;22.28;53.89;99865.06;7300059;19;131280;-42
2023/08/10 05:21:00;;;;;;;80.85;5.15;;;;;;;22.19;53.60;99850.16;7303597;19;129449;-39
2023/08/10 05:23:25;;;;;;;77.53;5.85;;;;;;;22.28;54.12;99871.09;7306667;19;129748;-41
2023/08/10 05:25:50;;;;;;;47.37;3.77;;;;;;;22.25;54.18;99874.00;7305552;19;129400;-41
2023/08/10 05:28:17;;;;;;;34.53;3.00;;;;;;;22.30;53.25;99874.41;7315241;19;130583;-42
2023/08/10 05:30:43;;;;;;;78.93;5.97;;;;;;;22.26;53.77;99878.28;7306287;19;129631;-41
2023/08/10 05:33:08;;;;;;;71.03;5.50;;;;;;;22.29;53.55;99887.66;7304077;19;132104;-40
2023/08/10 05:35:34;;;;;;;45.25;3.83;;;;;;;22.29;53.90;99882.41;7303987;19;130987;-43
2023/08/10 05:37:59;;;;;;;89.67;6.37;;;;;;;22.29;53.48;99882.41;7300745;19;131264;-38
2023/08/10 05:40:25;;;;;;;70.60;5.83;;;;;;;22.18;53.96;99858.97;7301851;19;130088;-44
2023/08/10 05:42:50;;;;;;;71.63;5.40;;;;;;;22.28;53.79;99880.78;7303500;19;130554;-35
2023/08/10 05:45:16;;;;;;;70.47;5.05;;;;;;;22.28;53.61;99881.56;7299648;19;129396;-38
2023/08/10 05:47:42;;;;;;;71.53;5.40;;;;;;;22.26;53.91;99883.53;7303133;19;130439;-41
2023/08/10 05:50:08;;;;;;;54.47;4.10;;;;;;;22.28;53.79;99880.78;7305818;19;130162;-35
2023/08/10 05:52:33;;;;;;;90.63;6.27;;;;;;;22.18;54.27;99864.22;7300769;19;130719;-41
2023/08/10 05:54:59;;;;;;;56.90;4.73;;;;;;;22.27;54.11;99881.72;7302423;19;129672;-41
2023/08/10 05:57:24;;;;;;;55.58;4.13;;;;;;;22.28;54.11;99880.78;7301848;19;130774;-42
2023/08/10 05:59:49;;;;;;;43.50;3.28;;;;;;;22.27;54.11;99885.16;7307796;19;130161;-41
2023/08/10 06:02:15;;;;;;;59.87;4.60;;;;;;;22.28;54.17;99892.06;7298793;19;131701;-41
2023/08/10 06:04:41;;;;;;;129.43;8.98;;;;;;;22.29;54.30;99887.66;7299326;19;130077;-38
2023/08/10 06:07:07;;;;;;;58.43;4.43;;;;;;;22.28;53.94;99893.88;7300492;19;130603;-41
2023/08/10 06:09:32;;;;;;;67.72;4.97;;;;;;;22.27;53.83;99889.56;7301863;19;129866;-40
2023/08/10 06:11:57;;;;;;;34.55;2.80;;;;;;;22.27;54.42;99886.94;7308611;19;129696;-42
2023/08/10 06:14:24;;;;;;;49.30;4.03;;;;;;;22.28;54.35;99888.63;7309623;19;129556;-42
2023/08/10 06:16:50;;;;;;;74.40;5.15;;;;;;;22.25;54.06;99887.09;7308031;19;130514;-42
2023/08/10 06:19:15;;;;;;;37.78;3.10;;;;;;;22.26;53.91;99893.16;7310629;19;129953;-42
2023/08/10 06:21:40;;;;;;;78.05;5.65;;;;;;;22.26;53.53;99893.16;7304388;19;129915;-43
2023/08/10 06:24:08;;;;;;;62.53;4.65;;;;;;;22.26;54.36;99888.75;7301643;19;129442;-41
2023/08/10 06:26:34;;;;;;;80.93;5.53;;;;;;;22.25;54.09;99888.88;7299967;19;130877;-44
2023/08/10 06:29:00;;;;;;;84.38;6.43;;;;;;;22.27;54.13;99893.03;7299758;19;129835;-41
2023/08/10 06:31:25;;;;;;;79.97;6.27;;;;;;;22.22;53.03;99897.00;7292859;19;130876;-44
2023/08/10 06:33:51;;;;;;;95.97;6.57;;;;;;;22.11;54.51;99884.06;7297963;19;130778;-39
2023/08/10 06:36:16;;;;;;;75.73;5.77;;;;;;;22.23;54.06;99894.25;7297404;19;130526;-41
2023/08/10 06:38:42;;;;;;;63.92;5.20;;;;;;;22.28;54.30;99901.72;7298717;19;130061;-39
2023/08/10 06:41:07;;;;;;;47.60;3.70;;;;;;;22.25;54.46;99900.19;7299347;19;129819;-41
2023/08/10 06:43:32;;;;;;;44.37;3.33;;;;;;;22.17;53.61;99881.72;7303414;19;129326;-41
2023/08/10 06:45:58;;;;;;;40.70;3.03;;;;;;;22.25;54.09;99905.44;7307462;19;130272;-44
2023/08/10 06:48:24;;;;;;;57.73;4.37;;;;;;;22.16;54.38;99887.09;7302907;19;130616;-39
2023/08/10 06:50:49;;;;;;;82.55;5.75;;;;;;;22.31;53.99;99911.91;7300561;19;131319;-43
2023/08/10 06:53:15;;;;;;;70.30;4.90;;;;;;;22.30;54.34;99910.25;7300412;19;130234;-43
2023/08/10 06:55:40;;;;;;;68.83;5.23;;;;;;;22.33;53.32;99910.81;7300683;19;129607;-40
2023/08/10 06:58:08;;;;;;;48.85;3.80;;;;;;;22.37;53.33;99916.59;7299448;19;131082;-43
2023/08/10 07:00:34;;;;;;;77.72;6.07;;;;;;;22.34;53.68;99907.25;7296765;19;131345;-41
2023/08/10 07:02:59;;;;;;;104.33;7.57;;;;;;;22.40;53.45;99916.31;7301171;19;130649;-42
2023/08/10 07:05:31;;;;;;;72.40;5.40;;;;;;;22.37;53.20;99916.59;7300523;19;130387;-41
2023/08/10 07:07:56;;;;;;;61.55;4.85;;;;;;;22.37;52.75;99913.97;7298936;19;130968;-45
2023/08/10 07:10:22;;;;;;;73.82;5.50;;;;;;;22.38;53.44;99913.03;7298721;19;130293;-41
2023/08/10 07:12:48;;;;;;;73.63;5.57;;;;;;;22.40;53.36;99916.31;7301797;19;130903;-39
2023/08/10 07:15:13;;;;;;;87.57;6.57;;;;;;;22.40;53.59;99905.84;7298261;19;129863;-42
2023/08/10 07:17:38;;;;;;;51.53;4.30;;;;;;;22.43;53.44;99902.97;7308741;19;129424;-35
2023/08/10 07:20:08;;;;;;;60.88;4.75;;;;;;;22.42;53.57;99904.75;7300288;19;129233;-44
2023/08/10 07:22:34;;;;;;;98.40;6.95;;;;;;;22.43;53.63;99910.84;7301164;19;130383;-40
2023/08/10 07:25:03;;;;;;;71.53;5.80;;;;;;;22.39;53.33;99904.19;7298619;19;131371;-42
2023/08/10 07:27:29;;;;;;;90.95;6.72;;;;;;;22.39;53.88;99898.97;7298538;19;131051;-40
2023/08/10 07:29:56;;;;;;;88.90;6.53;;;;;;;22.44;53.34;99909.84;7295039;19;130868;-43
2023/08/10 07:32:21;;;;;;;58.15;4.78;;;;;;;22.46;52.97;99915.78;7299187;19;130436;-41
2023/08/10 07:34:47;;;;;;;65.63;5.05;;;;;;;22.43;53.14;99911.66;7298554;19;130011;-40
2023/08/10 07:37:12;;;;;;;47.43;4.07;;;;;;;22.46;53.08;99911.38;7298293;19;130102;-36
2023/08/10 07:39:37;;;;;;;61.38;5.28;;;;;;;22.48;53.86;99908.59;7300310;19;131344;-38
2023/08/10 07:42:03;;;;;;;71.17;5.40;;;;;;;22.50;53.45;99909.28;7298092;19;130610;-38
2023/08/10 07:44:28;;;;;;;131.55;10.50;;;;;;;22.49;53.52;99915.50;7298814;19;130279;-38
2023/08/10 07:46:54;;;;;;;66.03;5.30;;;;;;;22.48;53.72;99905.97;7296629;19;131190;-41
2023/08/10 07:49:20;;;;;;;54.63;4.00;;;;;;;22.49;53.36;99918.13;7305594;19;130050;-36
2023/08/10 07:51:47;;;;;;;59.27;4.80;;;;;;;22.44;53.48;99902.84;7308394;19;128897;-39
2023/08/10 07:54:13;;;;;;;21.35;2.15;;;;;;;22.49;53.42;99913.72;7309577;19;129374;-42
2023/08/10 07:56:38;;;;;;;34.75;3.10;;;;;;;22.51;53.20;99911.78;7307285;19;130126;-41
2023/08/10 07:59:04;;;;;;;50.80;3.90;;;;;;;22.50;53.19;99919.78;7307450;19;130277;-36
2023/08/10 08:01:29;;;;;;;79.97;6.18;;;;;;;22.53;53.19;99919.53;7301710;19;129854;-39
2023/08/10 08:03:55;;;;;;;75.05;5.95;;;;;;;22.51;53.69;99918.84;7300911;19;130382;-38
2023/08/10 08:06:20;;;;;;;66.50;5.30;;;;;;;22.51;53.09;99922.25;7297923;19;131112;-43
2023/08/10 08:08:45;;;;;;;75.60;5.93;;;;;;;22.50;52.96;99922.41;7297745;19;129303;-41
2023/08/10 08:11:11;;;;;;;85.70;6.23;;;;;;;22.52;53.96;99917.84;7298635;19;130619;-40
2023/08/10 08:13:36;;;;;;;42.25;3.53;;;;;;;22.54;53.08;99929.06;7301967;19;129142;-38
2023/08/10 08:16:01;;;;;;;46.27;3.97;;;;;;;22.42;53.86;99901.31;7296408;19;132001;-40
2023/08/10 08:18:44;;;;;;;58.03;4.55;;;;;;;22.53;54.41;99917.75;7302723;19;130392;-41
2023/08/10 08:21:11;;;;;;;79.50;5.65;;;;;;;22.52;52.90;99920.47;7307484;19;129282;-42
2023/08/10 08:23:37;;;;;;;81.35;6.13;;;;;;;22.42;53.42;99898.69;7299020;19;130254;-39
2023/08/10 08:26:03;;;;;;;59.00;4.73;;;;;;;22.49;53.58;99912.91;7295161;19;129422;-43
2023/08/10 08:28:28;;;;;;;54.07;4.23;;;;;;;22.53;53.44;99914.28;7299122;19;129281;-42
2023/08/10 08:30:54;;;;;;;95.77;6.80;;;;;;;22.53;53.07;99906.44;7297960;19;130865;-40
2023/08/10 08:33:19;;;;;;;56.60;4.18;;;;;;;22.55;52.53;99909.75;7308739;19;129501;-43
2023/08/10 08:35:46;;;;;;;29.33;2.53;;;;;;;22.47;52.27;99899.09;7297853;19;131464;-41
2023/08/10 08:38:15;;;;;;;70.35;5.70;;;;;;;22.50;52.79;99917.16;7294845;19;130712;-40
2023/08/10 08:40:41;;;;;;;93.05;6.72;;;;;;;22.45;53.33;99908.88;7296121;19;129515;-43
2023/08/10 08:43:07;;;;;;;58.28;4.57;;;;;;;22.45;52.96;99898.41;7301636;19;130392;-43
2023/08/10 08:45:32;;;;;;;61.73;4.80;;;;;;;22.51;53.33;99914.41;7296717;19;130344;-38
2023/08/10 08:47:58;;;;;;;60.73;4.83;;;;;;;22.52;53.00;99920.47;7296840;19;130187;-38
2023/08/10 08:50:26;;;;;;;104.10;7.30;;;;;;;22.49;51.84;99910.28;7296698;19;129223;-39
2023/08/10 08:52:53;;;;;;;73.72;5.65;;;;;;;22.52;52.77;99915.22;7296969;19;129833;-39
2023/08/10 08:55:18;;;;;;;;;;;;;;;22.56;53.79;99912.22;7308813;19;130114;-42
2023/08/10 08:57:44;;;;;;;16.38;1.98;;;;;;;22.52;52.35;99916.06;7313777;19;129870;-43
2023/08/10 09:00:10;;;;;;;45.45;3.72;;;;;;;22.51;53.03;99919.63;7312305;19;129121;-44
2023/08/10 09:02:35;;;;;;;35.53;2.92;;;;;;;22.38;52.07;99886.84;7315020;19;129117;-42
2023/08/10 09:05:02;;;;;;;29.25;2.55;;;;;;;22.53;52.98;99909.03;7312894;19;130686;-38
2023/08/10 09:07:28;;;;;;;;;;;;;;;22.42;53.48;99881.19;7309431;19;130809;-39
2023/08/10 09:09:54;;;;;;;50.78;5.97;;;;;;;22.48;52.42;99911.22;7314715;19;129501;-38
2023/08/10 09:12:36;;;;;;;38.10;7.70;;;;;;;22.48;53.55;99903.38;7314863;19;129587;-42
2023/08/10 09:15:13;;;;;;;76.35;9.35;;;;;;;22.48;53.02;99903.38;7305112;19;131086;-42
2023/08/10 09:17:48;;;;;;;32.60;5.57;;;;;;;22.56;53.31;99906.19;7311306;19;130181;-39
2023/08/10 09:20:26;;;;;;;38.47;5.82;;;;;;;22.52;52.91;99910.00;7311947;19;129612;-41
2023/08/10 09:22:56;;;;;;;52.03;5.80;;;;;;;22.53;52.56;99898.56;7313704;19;129354;-39
2023/08/10 09:25:22;;;;;;;63.20;6.30;;;;;;;22.55;51.30;99894.03;7312426;19;129557;-39
2023/08/10 09:27:49;;;;;;;61.65;6.47;;;;;;;22.51;51.55;99898.69;7302051;19;131823;-39
2023/08/10 09:30:16;;;;;;;62.72;6.18;;;;;;;22.54;52.26;99895.00;7304331;19;131560;-42
2023/08/10 09:32:42;;;;;;;80.75;7.05;;;;;;;22.52;51.85;99894.28;7303611;19;129643;-40
2023/08/10 09:35:18;;;;;;;102.95;8.60;;;;;;;22.53;51.91;99896.78;7300259;19;130575;-40
2023/08/10 09:37:44;;;;;;;40.63;4.18;;;;;;;22.46;51.28;99894.84;7302463;19;129608;-40
2023/08/10 09:40:14;;;;;;;51.85;4.55;;;;;;;22.57;51.85;99895.56;7301439;19;129058;-43
2023/08/10 09:42:39;;;;;;;76.35;6.18;;;;;;;22.58;52.17;99896.34;7302726;19;129472;-45
2023/08/10 09:45:08;;;;;;;73.00;6.03;;;;;;;22.57;51.16;99898.19;7299778;19;132197;-40
2023/08/10 09:47:36;;;;;;;70.40;5.78;;;;;;;22.57;51.50;99902.59;7301255;19;130002;-40
2023/08/10 09:50:05;;;;;;;59.78;4.93;;;;;;;22.55;51.09;99899.25;7302835;19;130845;-40
2023/08/10 09:52:31;;;;;;;66.85;5.47;;;;;;;22.56;51.03;99898.31;7302031;19;131283;-43
2023/08/10 09:54:57;;;;;;;66.53;5.07;;;;;;;22.56;51.15;99900.94;7304120;19;130814;-41
2023/08/10 09:57:24;;;;;;;85.17;6.23;;;;;;;22.57;50.98;99897.34;7303472;19;130954;-44
2023/08/10 09:59:51;;;;;;;90.95;7.15;;;;;;;22.55;51.33;99899.25;7300057;19;129419;-38
2023/08/10 10:02:17;;;;;;;56.00;4.63;;;;;;;22.50;52.00;99898.81;7303301;19;130382;-38
2023/08/10 10:04:44;;;;;;;65.93;4.93;;;;;;;22.52;51.61;99904.75;7300222;19;129615;-37
2023/08/10 10:07:11;;;;;;;56.67;4.45;;;;;;;22.54;50.25;99897.63;7302092;19;130730;-39
2023/08/10 10:09:38;;;;;;;80.85;5.75;;;;;;;22.56;51.75;99900.94;7304368;19;130854;-40
2023/08/10 10:12:10;;;;;;;42.38;3.45;;;;;;;22.57;52.12;99900.78;7304853;19;130628;-39
2023/08/10 10:14:39;;;;;;;95.30;7.63;;;;;;;22.46;52.26;99881.75;7310703;19;129157;-43
2023/08/10 10:17:06;;;;;;;90.18;6.20;;;;;;;22.55;51.32;99899.25;7305436;19;130089;-40
2023/08/10 10:19:32;;;;;;;66.43;5.30;;;;;;;22.55;50.56;99894.03;7301961;19;129798;-38
2023/08/10 10:21:59;;;;;;;105.32;7.65;;;;;;;22.55;51.68;99899.25;7301477;19;130330;-38
2023/08/10 10:24:29;;;;;;;80.80;6.47;;;;;;;22.50;52.20;99898.81;7299731;19;130142;-38
2023/08/10 10:27:05;;;;;;;87.78;6.68;;;;;;;22.56;52.59;99895.69;7298063;19;130693;-38
2023/08/10 10:29:49;;;;;;;57.77;4.07;;;;;;;22.56;52.77;99893.06;7305101;19;130554;-40
2023/08/10 10:32:16;;;;;;;74.82;5.40;;;;;;;22.41;51.54;99876.88;7302094;19;129422;-43
2023/08/10 10:34:43;;;;;;;63.85;4.70;;;;;;;22.49;50.69;99884.91;7300579;19;130299;-41
2023/08/10 10:37:14;;;;;;;25.77;2.50;;;;;;;22.52;52.78;99889.03;7304223;19;130435;-41
2023/08/10 10:39:42;;;;;;;60.95;4.95;;;;;;;22.56;51.71;99900.94;7310640;19;129997;-39
2023/08/10 10:42:09;;;;;;;84.15;6.13;;;;;;;22.57;51.10;99895.56;7308319;19;129109;-39
2023/08/10 10:44:59;;;;;;;124.20;9.00;;;;;;;22.56;52.90;99893.06;7300483;19;130044;-42
2023/08/10 10:47:34;;;;;;;104.53;6.90;;;;;;;22.43;51.45;99897.75;7290733;19;131339;-43
2023/08/10 10:50:00;;;;;;;61.92;4.35;;;;;;;22.31;50.80;99878.72;7294788;19;129450;-43
2023/08/10 10:52:38;;;;;;;68.97;4.90;;;;;;;22.29;51.99;99882.41;7304221;19;129428;-44
2023/08/10 10:55:08;;;;;;;63.75;4.45;;;;;;;22.29;52.04;99877.19;7304347;19;130607;-37
2023/08/10 10:57:34;;;;;;;97.70;6.22;;;;;;;22.31;51.88;99896.22;7302381;19;129267;-36
2023/08/10 10:59:59;;;;;;;75.97;5.33;;;;;;;22.37;51.84;99885.16;7299725;19;130154;-45
2023/08/10 11:02:26;;;;;;;105.30;7.22;;;;;;;22.40;52.43;99874.41;7300847;19;129292;-43
2023/08/10 11:04:52;;;;;;;93.13;6.20;;;;;;;22.45;52.67;99880.06;7295631;19;130896;-39
2023/08/10 11:07:17;;;;;;;114.45;7.78;;;;;;;22.48;52.29;99883.25;7290954;19;131456;-44
2023/08/10 11:09:42;;;;;;;69.97;4.87;;;;;;;22.53;52.63;99882.84;7299791;19;129695;-44
2023/08/10 11:12:08;;;;;;;41.00;2.93;;;;;;;22.55;52.00;99878.31;7300871;19;131475;-38
2023/08/10 11:14:36;;;;;;;139.55;9.85;;;;;;;22.56;51.59;99870.28;7302713;19;129705;-39